createdAt,value
2018-05-16T00:01:17.155Z,101852.81
2018-05-16T00:03:44.686Z,101831.48
2018-05-16T00:06:12.241Z,101829.45
2018-05-16T00:08:39.797Z,101840.63
2018-05-16T00:11:07.351Z,101803.05
2018-05-16T00:13:34.888Z,101811.17
2018-05-16T00:16:02.591Z,101794.91
2018-05-16T00:18:30.123Z,101823.36
2018-05-16T00:20:57.659Z,101753.27
2018-05-16T00:23:25.227Z,101777.65
2018-05-16T00:25:52.764Z,101825.39
2018-05-16T00:28:20.379Z,101813.20
2018-05-16T00:30:47.915Z,101791.87
2018-05-16T00:33:15.465Z,101815.23
2018-05-16T00:35:43.035Z,101850.78
2018-05-16T00:38:10.571Z,101856.87
2018-05-16T00:40:38.154Z,101818.28
2018-05-16T00:43:05.686Z,101822.34
2018-05-16T00:45:33.239Z,101795.93
2018-05-16T00:48:00.803Z,101901.58
2018-05-16T00:50:28.409Z,101850.78
2018-05-16T00:52:56.693Z,101857.89
2018-05-16T00:55:24.227Z,101922.91
2018-05-16T00:57:51.754Z,101898.53
2018-05-16T01:00:19.310Z,101922.91
2018-05-16T01:02:46.887Z,101895.48
2018-05-16T01:05:14.884Z,101914.78
2018-05-16T01:07:42.429Z,101969.64
2018-05-16T01:10:09.963Z,101912.75
2018-05-16T01:12:37.539Z,101981.83
2018-05-16T01:15:05.287Z,102021.45
2018-05-16T01:17:32.819Z,102027.55
2018-05-16T01:20:00.355Z,102068.18
2018-05-16T01:22:27.915Z,102057.01
2018-05-16T01:24:55.445Z,102051.92
2018-05-16T01:27:23.030Z,102076.31
2018-05-16T01:29:50.567Z,102127.11
2018-05-16T01:32:18.119Z,102084.44
2018-05-16T01:34:46.177Z,102131.17
2018-05-16T01:37:13.706Z,102163.67
2018-05-16T01:39:41.246Z,102213.45
2018-05-16T01:42:08.837Z,102151.48
2018-05-16T01:44:36.372Z,102139.30
2018-05-16T01:47:04.001Z,102207.36
2018-05-16T01:49:31.568Z,102164.69
2018-05-16T01:51:59.491Z,102231.74
2018-05-16T01:54:27.020Z,102250.03
2018-05-16T01:56:54.555Z,102215.48
2018-05-16T01:59:22.110Z,102225.65
2018-05-16T02:01:49.659Z,102231.74
2018-05-16T02:04:17.662Z,102234.79
2018-05-16T02:06:45.194Z,102296.77
2018-05-16T02:09:12.726Z,102266.28
2018-05-16T02:11:40.493Z,102325.21
2018-05-16T02:14:08.049Z,102341.47
2018-05-16T02:16:35.570Z,102423.77
2018-05-16T02:19:03.126Z,102433.92
2018-05-16T02:21:30.682Z,102380.07
2018-05-16T02:23:58.261Z,102423.77
2018-05-16T02:26:25.800Z,102384.14
2018-05-16T02:28:53.507Z,102410.55
2018-05-16T02:31:21.046Z,102450.17
2018-05-16T02:33:48.591Z,102463.38
2018-05-16T02:36:16.164Z,102483.70
2018-05-16T02:38:43.699Z,102481.67
2018-05-16T02:41:11.259Z,102471.52
2018-05-16T02:43:38.808Z,102456.27
2018-05-16T02:46:06.370Z,102527.39
2018-05-16T02:48:33.906Z,102495.90
2018-05-16T02:51:01.460Z,102543.66
2018-05-16T02:53:28.999Z,102501.99
2018-05-16T02:55:56.564Z,102486.75
2018-05-16T02:58:24.095Z,102476.59
2018-05-16T03:00:51.628Z,102495.90
2018-05-16T03:03:19.627Z,102472.53
2018-05-16T03:05:47.164Z,102431.89
2018-05-16T03:08:14.700Z,102442.05
2018-05-16T03:10:42.330Z,102468.47
2018-05-16T03:13:09.863Z,102431.89
2018-05-16T03:15:37.395Z,102410.55
2018-05-16T03:18:04.956Z,102393.28
2018-05-16T03:20:32.632Z,102392.27
2018-05-16T03:23:00.166Z,102424.78
2018-05-16T03:25:27.706Z,102410.55
2018-05-16T03:27:55.263Z,102418.68
2018-05-16T03:30:22.790Z,102434.94
2018-05-16T03:32:50.352Z,102474.56
2018-05-16T03:35:18.091Z,102420.71
2018-05-16T03:37:45.627Z,102433.92
2018-05-16T03:40:13.167Z,102435.95
2018-05-16T03:42:40.726Z,102467.45
2018-05-16T03:45:08.255Z,102454.24
2018-05-16T03:47:36.509Z,102453.23
2018-05-16T03:50:04.084Z,102470.50
2018-05-16T03:52:31.623Z,102465.42
2018-05-16T03:54:59.184Z,102513.17
2018-05-16T03:57:38.751Z,102471.52
2018-05-16T04:00:18.131Z,102443.06
2018-05-16T04:05:48.626Z,102434.94
2018-05-16T04:08:16.227Z,102460.34
2018-05-16T04:10:43.837Z,102478.63
2018-05-16T04:13:11.376Z,102392.27
2018-05-16T04:15:39.042Z,102350.61
2018-05-16T04:18:06.566Z,102313.02
2018-05-16T04:20:34.100Z,102344.52
2018-05-16T04:23:01.665Z,102390.23
2018-05-16T04:25:29.775Z,102433.92
2018-05-16T04:27:57.543Z,102415.63
2018-05-16T04:30:25.075Z,102445.09
2018-05-16T04:32:52.604Z,102409.54
2018-05-16T04:35:20.584Z,102400.39
2018-05-16T04:37:48.124Z,102346.55
2018-05-16T04:40:15.654Z,102377.02
2018-05-16T04:42:43.224Z,102367.88
2018-05-16T04:45:10.923Z,102367.88
2018-05-16T04:47:38.463Z,102331.30
2018-05-16T04:50:06.003Z,102298.80
2018-05-16T04:52:33.553Z,102310.98
2018-05-16T04:55:01.110Z,102357.72
2018-05-16T04:57:28.647Z,102322.16
2018-05-16T04:59:56.202Z,102237.84
2018-05-16T05:02:23.769Z,102208.38
2018-05-16T05:04:51.327Z,102156.56
2018-05-16T05:07:18.863Z,102129.14
2018-05-16T05:09:46.438Z,102149.45
2018-05-16T05:12:13.973Z,102117.96
2018-05-16T05:14:41.812Z,102128.13
2018-05-16T05:17:09.306Z,102111.86
2018-05-16T05:19:36.848Z,102071.23
2018-05-16T05:22:04.403Z,102063.10
2018-05-16T05:24:31.956Z,102072.25
2018-05-16T05:26:59.492Z,102091.55
2018-05-16T05:29:27.047Z,102105.77
2018-05-16T05:31:54.597Z,102095.61
2018-05-16T05:34:22.543Z,102152.50
2018-05-16T05:36:50.156Z,102068.18
2018-05-16T05:39:17.625Z,102040.75
2018-05-16T05:41:45.182Z,102077.33
2018-05-16T05:44:12.848Z,102121.01
2018-05-16T05:46:40.406Z,102082.41
2018-05-16T05:49:07.977Z,102107.80
2018-05-16T05:51:35.761Z,102128.13
2018-05-16T05:54:03.293Z,102270.35
2018-05-16T05:56:30.825Z,102394.30
2018-05-16T05:58:58.403Z,102497.93
2018-05-16T06:01:25.931Z,102515.20
2018-05-16T06:03:53.483Z,102526.38
2018-05-16T06:06:21.209Z,102546.70
2018-05-16T06:08:48.746Z,102542.64
2018-05-16T06:11:16.287Z,102540.61
2018-05-16T06:13:43.850Z,102526.38
2018-05-16T06:16:11.533Z,102518.25
2018-05-16T06:18:39.062Z,102596.48
2018-05-16T06:21:06.594Z,102630.02
2018-05-16T06:23:34.617Z,102599.53
2018-05-16T06:26:02.143Z,102629.00
2018-05-16T06:28:29.681Z,102666.59
2018-05-16T06:30:57.235Z,102572.10
2018-05-16T06:33:24.768Z,102561.94
2018-05-16T06:35:52.358Z,102510.12
2018-05-16T06:38:19.904Z,102459.32
2018-05-16T06:40:47.469Z,102412.59
2018-05-16T06:43:15.204Z,102410.55
2018-05-16T06:45:42.767Z,102412.59
2018-05-16T06:48:10.306Z,102397.34
2018-05-16T06:50:37.865Z,102396.33
2018-05-16T06:53:05.441Z,102359.75
2018-05-16T06:55:32.995Z,102413.60
2018-05-16T06:58:00.552Z,102415.63
2018-05-16T07:00:28.110Z,102316.06
2018-05-16T07:02:55.717Z,102324.20
2018-05-16T07:05:23.248Z,102321.14
2018-05-16T07:07:50.815Z,102222.59
2018-05-16T07:10:18.342Z,102256.13
2018-05-16T07:12:45.963Z,102160.62
2018-05-16T07:15:13.532Z,102159.61
2018-05-16T07:17:41.087Z,102209.39
2018-05-16T07:20:08.664Z,102182.98
2018-05-16T07:22:36.221Z,102237.84
2018-05-16T07:25:03.783Z,102263.23
2018-05-16T07:27:31.320Z,102254.09
2018-05-16T07:29:58.874Z,102352.64
2018-05-16T07:32:26.427Z,102381.09
2018-05-16T07:34:54.029Z,102432.91
2018-05-16T07:37:21.574Z,102425.80
2018-05-16T07:39:49.184Z,102388.20
2018-05-16T07:42:16.743Z,102447.13
2018-05-16T07:44:44.372Z,102374.99
2018-05-16T07:47:12.139Z,102408.52
2018-05-16T07:49:39.679Z,102318.09
2018-05-16T07:52:07.214Z,102284.58
2018-05-16T07:54:34.796Z,102243.94
2018-05-16T07:57:02.330Z,102252.06
2018-05-16T07:59:29.877Z,102260.19
2018-05-16T08:01:57.439Z,102268.32
2018-05-16T08:04:25.000Z,102331.30
2018-05-16T08:06:52.568Z,102276.45
2018-05-16T08:09:20.572Z,102279.49
2018-05-16T08:11:48.107Z,102300.83
2018-05-16T08:14:15.644Z,102251.05
2018-05-16T08:16:43.205Z,102233.77
2018-05-16T08:19:10.748Z,102209.39
2018-05-16T08:21:38.510Z,102155.55
2018-05-16T08:24:06.006Z,102105.77
2018-05-16T08:26:33.548Z,102242.92
2018-05-16T08:29:01.122Z,102073.27
2018-05-16T08:31:28.848Z,101841.64
2018-05-16T08:33:56.374Z,101847.73
2018-05-16T08:36:23.903Z,101626.30
2018-05-16T08:38:51.472Z,101516.59
2018-05-16T08:41:19.111Z,101485.11
2018-05-16T08:43:46.669Z,101421.12
2018-05-16T08:46:14.221Z,101362.20
2018-05-16T08:48:42.130Z,101451.59
2018-05-16T08:51:09.684Z,101298.22
2018-05-16T08:53:37.214Z,101338.84
2018-05-16T08:56:04.793Z,101337.83
2018-05-16T08:58:32.337Z,101213.92
2018-05-16T09:00:59.899Z,101193.60
2018-05-16T09:03:27.443Z,101144.86
2018-05-16T09:05:54.998Z,101033.14
2018-05-16T09:08:22.564Z,100686.84
2018-05-16T09:10:50.126Z,100854.39
2018-05-16T09:13:17.664Z,100856.42
2018-05-16T09:15:45.345Z,100848.30
2018-05-16T09:18:12.884Z,100914.31
2018-05-16T09:20:40.439Z,100928.53
2018-05-16T09:23:07.996Z,101034.16
2018-05-16T09:25:35.536Z,100954.94
2018-05-16T09:28:03.094Z,100938.69
2018-05-16T09:30:30.659Z,100880.80
2018-05-16T09:32:58.217Z,100911.27
2018-05-16T09:35:25.961Z,100944.78
2018-05-16T09:37:53.500Z,100840.18
2018-05-16T09:40:21.108Z,100726.44
2018-05-16T09:42:48.663Z,100711.20
2018-05-16T09:45:16.219Z,100800.58
2018-05-16T09:47:43.747Z,100777.22
2018-05-16T09:50:11.306Z,100843.23
2018-05-16T09:52:38.869Z,100764.02
2018-05-16T09:55:06.398Z,100626.92
2018-05-16T09:57:34.071Z,100477.66
2018-05-16T10:00:01.878Z,100315.19
2018-05-16T10:02:29.419Z,100791.44
2018-05-16T10:04:57.060Z,100446.17
2018-05-16T10:07:24.552Z,100431.95
2018-05-16T10:09:52.637Z,100429.92
2018-05-16T10:12:20.163Z,100367.98
2018-05-16T10:14:47.707Z,100212.64
2018-05-16T10:17:15.371Z,100161.87
2018-05-16T10:19:42.909Z,100194.36
2018-05-16T10:22:10.477Z,100136.48
2018-05-16T10:24:38.021Z,100257.31
2018-05-16T10:27:05.583Z,100268.48
2018-05-16T10:29:33.134Z,100142.58
2018-05-16T10:32:00.697Z,100121.25
2018-05-16T10:34:28.492Z,100151.72
2018-05-16T10:36:55.991Z,99994.34
2018-05-16T10:39:23.514Z,99874.54
2018-05-16T10:41:51.073Z,99790.27
2018-05-16T10:44:18.627Z,99867.43
2018-05-16T10:46:46.304Z,99793.32
2018-05-16T10:49:13.829Z,99733.42
2018-05-16T10:51:41.552Z,99662.36
2018-05-16T10:54:09.079Z,99572.00
2018-05-16T10:56:36.616Z,99717.18
2018-05-16T10:59:04.167Z,99688.75
2018-05-16T11:01:31.697Z,99659.31
2018-05-16T11:03:59.289Z,99590.28
2018-05-16T11:06:26.828Z,99537.49
2018-05-16T11:08:54.360Z,99553.73
2018-05-16T11:11:22.047Z,99531.41
2018-05-16T11:13:49.592Z,99459.33
2018-05-16T11:16:17.121Z,99579.11
2018-05-16T11:18:44.671Z,99479.62
2018-05-16T11:21:12.204Z,99382.17
2018-05-16T11:23:39.912Z,99173.07
2018-05-16T11:26:07.445Z,99271.53
2018-05-16T11:28:34.980Z,99233.97
2018-05-16T11:31:02.539Z,99149.72
2018-05-16T11:33:30.081Z,99108.11
2018-05-16T11:35:57.759Z,99211.64
2018-05-16T11:38:25.301Z,99222.81
2018-05-16T11:40:52.845Z,99213.67
2018-05-16T11:43:20.403Z,99150.73
2018-05-16T11:45:47.936Z,98827.97
2018-05-16T11:48:15.643Z,98576.27
2018-05-16T11:50:43.172Z,98715.31
2018-05-16T11:53:10.706Z,98648.33
2018-05-16T11:55:38.250Z,98655.43
2018-05-16T11:58:05.812Z,98656.45
2018-05-16T12:00:33.377Z,98577.28
2018-05-16T12:03:00.900Z,98664.56
2018-05-16T12:05:28.563Z,98683.84
2018-05-16T12:07:56.100Z,98832.03
2018-05-16T12:10:23.628Z,98716.33
2018-05-16T12:12:51.204Z,98803.61
2018-05-16T12:15:18.743Z,98792.45
2018-05-16T12:17:46.510Z,98679.79
2018-05-16T12:20:14.039Z,98771.13
2018-05-16T12:22:41.564Z,98712.27
2018-05-16T12:25:09.534Z,98705.16
2018-05-16T12:27:37.068Z,98777.22
2018-05-16T12:30:04.655Z,98827.97
2018-05-16T12:32:32.248Z,98760.98
2018-05-16T12:34:59.805Z,98898.00
2018-05-16T12:37:27.344Z,98764.03
2018-05-16T12:39:55.285Z,98785.34
2018-05-16T12:42:22.810Z,98661.52
2018-05-16T12:44:50.341Z,98927.44
2018-05-16T12:47:17.894Z,99125.36
2018-05-16T12:49:45.428Z,99300.97
2018-05-16T12:52:13.355Z,99488.77
2018-05-16T12:54:40.888Z,99649.16
2018-05-16T12:57:08.419Z,99399.44
2018-05-16T12:59:36.001Z,99631.91
2018-05-16T13:02:03.535Z,99563.89
2018-05-16T13:04:31.224Z,99612.61
2018-05-16T13:06:58.823Z,99473.53
2018-05-16T13:09:26.310Z,99491.81
2018-05-16T13:11:53.866Z,99600.43
2018-05-16T13:14:21.395Z,99848.14
2018-05-16T13:16:48.950Z,100221.77
2018-05-16T13:19:16.493Z,100237.00
2018-05-16T13:21:44.067Z,100275.59
2018-05-16T13:24:11.611Z,100191.31
2018-05-16T13:26:40.109Z,100153.75
2018-05-16T13:29:07.667Z,100108.05
2018-05-16T13:31:35.200Z,99926.32
2018-05-16T13:34:02.790Z,99812.61
2018-05-16T13:36:30.322Z,99882.66
2018-05-16T13:38:57.848Z,100437.03
2018-05-16T13:41:25.406Z,100477.66
2018-05-16T13:43:52.959Z,100402.52
2018-05-16T13:46:21.052Z,100402.52
2018-05-16T13:48:48.923Z,100285.74
2018-05-16T13:51:16.444Z,100314.17
2018-05-16T13:53:43.994Z,100344.63
2018-05-16T13:56:11.560Z,100284.73
2018-05-16T13:58:39.133Z,100547.72
2018-05-16T14:01:06.663Z,100758.94
2018-05-16T14:03:34.219Z,100658.41
2018-05-16T14:06:01.756Z,100666.53
2018-05-16T14:08:29.315Z,101033.14
2018-05-16T14:10:56.853Z,101035.17
2018-05-16T14:13:24.823Z,101075.80
2018-05-16T14:15:52.358Z,101201.73
2018-05-16T14:18:19.905Z,101162.13
2018-05-16T14:20:47.458Z,101303.30
2018-05-16T14:23:14.994Z,101308.37
2018-05-16T14:25:42.987Z,101196.66
2018-05-16T14:28:10.530Z,101243.37
2018-05-16T14:30:38.071Z,101259.63
2018-05-16T14:33:05.701Z,101292.13
2018-05-16T14:35:33.263Z,101252.52
2018-05-16T14:38:00.792Z,101201.73
2018-05-16T14:40:28.344Z,101176.34
2018-05-16T14:42:55.912Z,101069.70
2018-05-16T14:45:23.451Z,101051.42
2018-05-16T14:47:51.008Z,101033.14
2018-05-16T14:50:18.530Z,101055.48
2018-05-16T14:52:46.059Z,101052.44
2018-05-16T14:55:13.678Z,101034.16
2018-05-16T14:57:41.215Z,101115.41
2018-05-16T15:00:08.983Z,101063.61
2018-05-16T15:02:36.577Z,101221.03
2018-05-16T15:05:04.113Z,101186.50
2018-05-16T15:07:31.722Z,101188.53
2018-05-16T15:09:59.246Z,101159.08
2018-05-16T15:12:26.966Z,101059.55
2018-05-16T15:14:54.591Z,101121.49
2018-05-16T15:17:22.098Z,100955.95
2018-05-16T15:19:49.655Z,100975.25
2018-05-16T15:22:17.593Z,101182.44
2018-05-16T15:24:45.120Z,101123.52
2018-05-16T15:27:12.662Z,101284.00
2018-05-16T15:29:40.407Z,101137.74
2018-05-16T15:32:07.933Z,101038.22
2018-05-16T15:34:35.465Z,101009.78
2018-05-16T15:37:03.139Z,101405.88
2018-05-16T15:39:30.677Z,101486.12
2018-05-16T15:41:58.208Z,101396.73
2018-05-16T15:44:25.771Z,101432.28
2018-05-16T15:46:53.363Z,101503.39
2018-05-16T15:49:20.918Z,101520.66
2018-05-16T15:51:48.447Z,101639.50
2018-05-16T15:54:15.984Z,101615.12
2018-05-16T15:56:43.543Z,101665.91
2018-05-16T15:59:11.141Z,101779.68
2018-05-16T16:01:38.680Z,101686.22
2018-05-16T16:04:06.231Z,101730.92
2018-05-16T16:06:33.843Z,101768.50
2018-05-16T16:09:01.379Z,101844.69
2018-05-16T16:11:28.956Z,101832.50
2018-05-16T16:13:56.579Z,101750.22
2018-05-16T16:16:24.105Z,101801.01
2018-05-16T16:18:51.630Z,101833.52
2018-05-16T16:21:19.209Z,101849.77
2018-05-16T16:23:46.738Z,101927.98
2018-05-16T16:26:14.263Z,101994.02
2018-05-16T16:28:41.967Z,102053.95
2018-05-16T16:31:09.500Z,101966.59
2018-05-16T16:33:37.037Z,102065.13
2018-05-16T16:36:04.603Z,102140.31
2018-05-16T16:38:32.360Z,102093.58
2018-05-16T16:40:59.912Z,102118.98
2018-05-16T16:43:27.442Z,102112.88
2018-05-16T16:45:55.000Z,102202.28
2018-05-16T16:48:22.592Z,102143.36
2018-05-16T16:50:50.119Z,102132.19
2018-05-16T16:53:19.681Z,102130.16
2018-05-16T16:55:47.267Z,102151.48
2018-05-16T16:58:14.800Z,102145.39
2018-05-16T17:00:42.352Z,102275.43
2018-05-16T17:03:09.919Z,102222.59
2018-05-16T17:05:37.452Z,102248.00
2018-05-16T17:08:05.017Z,102295.75
2018-05-16T17:10:32.578Z,102317.08
2018-05-16T17:13:00.111Z,102393.28
2018-05-16T17:15:28.117Z,102406.48
2018-05-16T17:17:55.648Z,102385.16
2018-05-16T17:20:23.240Z,102398.36
2018-05-16T17:22:50.761Z,102445.09
2018-05-16T17:25:18.295Z,102483.70
2018-05-16T17:27:45.852Z,102564.98
2018-05-16T17:30:13.385Z,102571.09
2018-05-16T17:32:41.134Z,102656.44
2018-05-16T17:35:08.675Z,102661.52
2018-05-16T17:37:36.199Z,102669.64
2018-05-16T17:40:03.768Z,102753.98
2018-05-16T17:42:31.307Z,102730.61
2018-05-16T17:44:58.872Z,102879.98
2018-05-16T17:47:26.406Z,102891.16
2018-05-16T17:49:53.967Z,102878.95
2018-05-16T17:52:21.549Z,102900.30
2018-05-16T17:54:49.082Z,102946.02
2018-05-16T17:57:16.627Z,102955.17
2018-05-16T17:59:44.187Z,102943.98
2018-05-16T18:02:11.755Z,102935.86
2018-05-16T18:04:39.291Z,102950.09
2018-05-16T18:07:06.852Z,102962.28
2018-05-16T18:09:34.389Z,102949.08
2018-05-16T18:12:01.964Z,102956.19
2018-05-16T18:17:33.526Z,103008.01
2018-05-16T18:20:01.059Z,103045.61
2018-05-16T18:22:28.578Z,103031.38
2018-05-16T18:24:56.186Z,103017.16
2018-05-16T18:27:23.722Z,103031.38
2018-05-16T18:29:51.261Z,103081.17
2018-05-16T18:32:18.848Z,103148.24
2018-05-16T18:34:46.387Z,103209.22
2018-05-16T18:37:13.945Z,103161.45
2018-05-16T18:39:41.539Z,103170.60
2018-05-16T18:42:09.080Z,103215.31
2018-05-16T18:44:36.749Z,103251.90
2018-05-16T18:47:04.323Z,103300.68
2018-05-16T18:49:31.854Z,103300.68
2018-05-16T18:51:59.408Z,103290.52
2018-05-16T18:54:26.940Z,103299.66
2018-05-16T18:56:54.666Z,103266.13
2018-05-16T18:59:22.211Z,103296.61
2018-05-16T19:01:49.744Z,103261.05
2018-05-16T19:04:17.377Z,103256.98
2018-05-16T19:06:44.948Z,103276.29
2018-05-16T19:09:12.520Z,103317.95
2018-05-16T19:11:40.225Z,103351.48
2018-05-16T19:14:07.753Z,103403.32
2018-05-16T19:16:35.316Z,103421.61
2018-05-16T19:19:02.842Z,103394.17
2018-05-16T19:21:30.421Z,103432.80
2018-05-16T19:23:57.975Z,103460.23
2018-05-16T19:26:25.506Z,103455.16
2018-05-16T19:28:53.314Z,103468.37
2018-05-16T19:31:20.885Z,103526.30
2018-05-16T19:33:48.477Z,103494.78
2018-05-16T19:36:16.010Z,103500.89
2018-05-16T19:38:43.566Z,103536.45
2018-05-16T19:41:11.094Z,103541.54
2018-05-16T19:43:39.068Z,103598.45
2018-05-16T19:46:06.628Z,103634.02
2018-05-16T19:48:35.069Z,103610.66
2018-05-16T19:51:02.629Z,103671.63
2018-05-16T19:53:30.163Z,103685.86
2018-05-16T19:55:57.868Z,103679.77
2018-05-16T19:58:25.399Z,103700.09
2018-05-16T20:00:52.933Z,103748.87
2018-05-16T20:03:20.594Z,103711.27
2018-05-16T20:05:48.134Z,103717.37
2018-05-16T20:08:15.664Z,103765.14
2018-05-16T20:10:43.191Z,103794.61
2018-05-16T20:13:10.745Z,103822.05
2018-05-16T20:15:38.300Z,103824.09
2018-05-16T20:18:05.844Z,103835.27
2018-05-16T20:20:33.795Z,103865.77
2018-05-16T20:23:01.327Z,103853.56
2018-05-16T20:25:28.852Z,103888.13
2018-05-16T20:27:56.407Z,103911.50
2018-05-16T20:30:24.410Z,103934.87
2018-05-16T20:32:51.940Z,103938.95
2018-05-16T20:35:19.471Z,103967.41
2018-05-16T20:37:47.234Z,103983.67
2018-05-16T20:40:14.760Z,104014.16
2018-05-16T20:42:42.290Z,104052.78
2018-05-16T20:45:10.269Z,104048.72
2018-05-16T20:47:37.802Z,104073.11
2018-05-16T20:50:05.342Z,104099.55
2018-05-16T20:52:33.288Z,104100.56
2018-05-16T20:55:00.819Z,104099.55
2018-05-16T20:57:28.355Z,104102.59
2018-05-16T20:59:55.917Z,104170.70
2018-05-16T21:02:23.479Z,104169.69
2018-05-16T21:04:50.999Z,104211.36
2018-05-16T21:07:18.924Z,104218.48
2018-05-16T21:09:46.463Z,104193.06
2018-05-16T21:12:13.992Z,104173.75
2018-05-16T21:14:41.947Z,104199.16
2018-05-16T21:17:09.488Z,104247.95
2018-05-16T21:19:37.016Z,104253.04
2018-05-16T21:22:04.683Z,104271.33
2018-05-16T21:24:32.207Z,104313.02
2018-05-16T21:26:59.795Z,104316.06
2018-05-16T21:29:27.804Z,104313.02
2018-05-16T21:31:55.335Z,104347.58
2018-05-16T21:34:22.872Z,104337.41
2018-05-16T21:36:50.436Z,104358.77
2018-05-16T21:39:18.202Z,104343.52
2018-05-16T21:41:45.750Z,104357.74
2018-05-16T21:44:13.359Z,104392.30
2018-05-16T21:46:40.874Z,104423.82
2018-05-16T21:49:08.598Z,104446.19
2018-05-16T21:51:36.136Z,104452.28
2018-05-16T21:54:03.662Z,104458.38
2018-05-16T21:56:31.216Z,104453.30
2018-05-16T21:58:58.746Z,104491.93
2018-05-16T22:01:26.322Z,104488.88
2018-05-16T22:03:53.850Z,104469.56
2018-05-16T22:06:21.388Z,104467.53
2018-05-16T22:08:48.944Z,104510.23
2018-05-16T22:11:16.463Z,104509.21
2018-05-16T22:13:44.061Z,104506.16
2018-05-16T22:16:11.591Z,104521.41
2018-05-16T22:18:39.114Z,104529.55
2018-05-16T22:21:06.710Z,104521.41
2018-05-16T22:23:34.260Z,104541.75
2018-05-16T22:26:01.797Z,104549.88
2018-05-16T22:28:29.559Z,104550.89
2018-05-16T22:31:02.644Z,104544.80
2018-05-16T22:33:35.872Z,104557.00
2018-05-16T22:36:09.039Z,104570.21
2018-05-16T22:38:42.490Z,104531.58
2018-05-16T22:41:15.754Z,104572.25
2018-05-16T22:43:53.716Z,104610.88
2018-05-16T22:46:21.266Z,104570.21
2018-05-16T22:48:48.801Z,104603.76
2018-05-16T22:51:16.412Z,104594.61
2018-05-16T22:53:43.943Z,104605.80
2018-05-16T22:56:11.476Z,104596.64
2018-05-16T22:58:39.042Z,104588.52
2018-05-16T23:01:06.591Z,104632.23
2018-05-16T23:03:34.147Z,104633.24
2018-05-16T23:06:01.708Z,104607.83
2018-05-16T23:08:29.236Z,104643.41
2018-05-16T23:10:57.230Z,104629.17
2018-05-16T23:13:24.755Z,104620.02
2018-05-16T23:15:52.297Z,104619.01
2018-05-16T23:18:19.866Z,104629.17
2018-05-16T23:20:47.395Z,104617.99
2018-05-16T23:23:15.086Z,104642.39
2018-05-16T23:25:42.617Z,104633.24
2018-05-16T23:28:10.151Z,104653.58
2018-05-16T23:30:37.719Z,104622.06
2018-05-16T23:33:05.280Z,104631.20
2018-05-16T23:35:32.802Z,104634.26
2018-05-16T23:38:00.356Z,104634.26
2018-05-16T23:40:27.887Z,104615.96
2018-05-16T23:42:55.448Z,104626.13
2018-05-16T23:45:22.971Z,104600.71
2018-05-16T23:47:50.718Z,104598.67
2018-05-16T23:50:18.285Z,104644.42
2018-05-16T23:52:45.811Z,104606.81
2018-05-16T23:55:13.364Z,104647.47
2018-05-16T23:57:40.887Z,104610.88
